createdAt,value
2022-09-01T00:01:30.313Z,9.43
2022-09-01T00:04:03.286Z,10.38
2022-09-01T00:06:32.800Z,10.32
2022-09-01T00:09:03.697Z,10.13
2022-09-01T00:11:30.801Z,9.38
2022-09-01T00:13:58.785Z,10.63
2022-09-01T00:16:25.283Z,11.07
2022-09-01T00:18:53.670Z,10.73
2022-09-01T00:21:25.226Z,11.48
2022-09-01T00:23:51.924Z,10.43
2022-09-01T00:26:18.565Z,10.57
2022-09-01T00:28:45.044Z,12.32
2022-09-01T00:31:11.822Z,12.00
2022-09-01T00:33:38.870Z,10.68
2022-09-01T00:36:05.606Z,12.70
2022-09-01T00:38:32.926Z,11.10
2022-09-01T00:41:00.718Z,11.00
2022-09-01T00:43:42.035Z,9.98
2022-09-01T00:46:12.770Z,11.60
2022-09-01T00:48:39.684Z,11.23
2022-09-01T00:51:09.928Z,9.73
2022-09-01T00:53:38.566Z,10.18
2022-09-01T00:56:07.416Z,9.85
2022-09-01T00:58:36.108Z,12.55
2022-09-01T01:01:05.281Z,9.40
2022-09-01T01:03:31.772Z,9.27
2022-09-01T01:06:03.391Z,9.93
2022-09-01T01:08:36.284Z,10.63
2022-09-01T01:11:18.038Z,11.82
2022-09-01T01:14:12.059Z,14.05
2022-09-01T01:16:44.720Z,12.27
2022-09-01T01:19:50.555Z,10.88
2022-09-01T01:22:45.407Z,12.45
2022-09-01T01:25:12.827Z,13.27
2022-09-01T01:27:43.614Z,11.73
2022-09-01T01:32:43.197Z,14.10
2022-09-01T01:35:14.655Z,12.85
2022-09-01T01:37:45.754Z,13.82
2022-09-01T01:40:17.722Z,13.38
2022-09-01T01:42:50.689Z,12.70
2022-09-01T01:45:20.126Z,13.75
2022-09-01T01:47:52.345Z,14.20
2022-09-01T01:50:35.753Z,14.70
2022-09-01T01:53:11.483Z,15.98
2022-09-01T01:55:40.048Z,15.15
2022-09-01T01:58:12.027Z,15.73
2022-09-01T02:00:38.981Z,15.55
2022-09-01T02:03:07.448Z,16.58
2022-09-01T02:05:36.164Z,13.55
2022-09-01T02:08:06.359Z,15.73
2022-09-01T02:10:44.007Z,15.80
2022-09-01T02:13:16.284Z,15.82
2022-09-01T02:15:48.899Z,17.00
2022-09-01T02:18:24.601Z,16.17
2022-09-01T02:20:52.146Z,18.90
2022-09-01T02:23:23.406Z,15.60
2022-09-01T02:26:15.163Z,12.95
2022-09-01T02:28:42.588Z,13.23
2022-09-01T02:31:11.284Z,14.48
2022-09-01T02:33:40.056Z,13.95
2022-09-01T02:36:14.153Z,13.27
2022-09-01T02:38:46.091Z,14.70
2022-09-01T02:41:14.673Z,17.67
2022-09-01T02:43:43.414Z,15.10
2022-09-01T02:46:10.636Z,14.55
2022-09-01T02:48:41.225Z,13.77
2022-09-01T02:51:14.479Z,13.02
2022-09-01T02:53:42.736Z,13.50
2022-09-01T02:56:15.374Z,20.10
2022-09-01T02:58:47.779Z,14.48
2022-09-01T03:01:30.187Z,13.25
2022-09-01T03:04:02.775Z,12.60
2022-09-01T03:06:31.402Z,14.90
2022-09-01T03:09:00.144Z,12.90
2022-09-01T03:11:31.716Z,12.90
2022-09-01T03:13:58.275Z,14.63
2022-09-01T03:16:24.808Z,14.00
2022-09-01T03:18:52.251Z,15.85
2022-09-01T03:21:20.304Z,13.43
2022-09-01T03:23:49.104Z,14.52
2022-09-01T03:26:18.591Z,13.60
2022-09-01T03:28:46.160Z,14.38
2022-09-01T03:31:12.777Z,11.50
2022-09-01T03:33:39.548Z,12.88
2022-09-01T03:36:08.401Z,14.23
2022-09-01T03:38:43.825Z,12.07
2022-09-01T03:41:12.952Z,13.07
2022-09-01T03:43:39.601Z,13.65
2022-09-01T03:46:21.779Z,12.13
2022-09-01T03:48:55.087Z,13.18
2022-09-01T03:51:23.565Z,12.20
2022-09-01T03:53:54.943Z,12.38
2022-09-01T03:56:24.652Z,13.05
2022-09-01T03:58:52.069Z,13.45
2022-09-01T04:01:19.703Z,12.95
2022-09-01T04:03:49.114Z,13.88
2022-09-01T04:06:18.602Z,13.57
2022-09-01T04:08:46.809Z,24.50
2022-09-01T04:11:19.087Z,13.07
2022-09-01T04:13:47.185Z,12.57
2022-09-01T04:16:40.721Z,14.27
2022-09-01T04:19:15.986Z,15.57
2022-09-01T04:21:43.886Z,13.23
2022-09-01T04:24:12.163Z,13.93
2022-09-01T04:26:38.704Z,12.98
2022-09-01T04:29:09.049Z,14.00
2022-09-01T04:31:38.679Z,12.85
2022-09-01T04:34:11.630Z,12.88
2022-09-01T04:36:39.000Z,15.98
2022-09-01T04:39:09.445Z,13.85
2022-09-01T04:41:50.512Z,16.95
2022-09-01T04:44:18.974Z,14.32
2022-09-01T04:46:50.718Z,15.10
2022-09-01T04:49:22.195Z,16.58
2022-09-01T04:51:53.625Z,14.32
2022-09-01T04:54:22.560Z,13.55
2022-09-01T04:56:51.119Z,14.68
2022-09-01T04:59:21.568Z,12.98
2022-09-01T05:01:50.385Z,13.30
2022-09-01T05:04:20.313Z,14.20
2022-09-01T05:06:54.502Z,16.40
2022-09-01T05:09:20.997Z,12.13
2022-09-01T05:11:48.486Z,15.15
2022-09-01T05:14:18.428Z,13.85
2022-09-01T05:16:45.549Z,13.75
2022-09-01T05:19:14.803Z,12.15
2022-09-01T05:21:46.290Z,20.13
2022-09-01T05:24:19.069Z,13.30
2022-09-01T05:26:50.745Z,17.63
2022-09-01T05:29:17.819Z,10.73
2022-09-01T05:31:46.941Z,10.52
2022-09-01T05:34:19.974Z,12.20
2022-09-01T05:36:50.501Z,11.93
2022-09-01T05:39:17.095Z,13.55
2022-09-01T05:41:43.855Z,11.23
2022-09-01T05:44:11.173Z,10.18
2022-09-01T05:46:39.443Z,8.75
2022-09-01T05:49:08.130Z,11.20
2022-09-01T05:51:45.789Z,13.15
2022-09-01T05:54:16.332Z,12.73
2022-09-01T05:56:44.579Z,12.38
2022-09-01T05:59:28.603Z,16.92
2022-09-01T06:01:55.598Z,12.93
2022-09-01T06:04:25.422Z,14.10
2022-09-01T06:07:10.215Z,15.00
2022-09-01T06:09:43.880Z,19.00
2022-09-01T06:12:18.938Z,21.60
2022-09-01T06:14:47.035Z,18.58
2022-09-01T06:17:16.362Z,14.60
2022-09-01T06:19:43.865Z,14.82
2022-09-01T06:22:10.846Z,12.93
2022-09-01T06:24:40.834Z,39.17
2022-09-01T06:27:10.494Z,10.95
2022-09-01T06:29:39.705Z,11.90
2022-09-01T06:32:09.840Z,10.73
2022-09-01T06:34:42.463Z,13.43
2022-09-01T06:37:10.988Z,10.70
2022-09-01T06:39:37.721Z,13.43
2022-09-01T06:42:06.211Z,9.73
2022-09-01T06:44:33.298Z,15.50
2022-09-01T06:47:00.098Z,8.15
2022-09-01T06:49:32.439Z,8.88
2022-09-01T06:52:00.533Z,11.95
2022-09-01T06:54:27.087Z,14.18
2022-09-01T06:56:53.651Z,9.68
2022-09-01T06:59:21.733Z,8.63
2022-09-01T07:01:49.280Z,12.77
2022-09-01T07:04:20.065Z,6.85
2022-09-01T07:06:59.672Z,9.95
2022-09-01T07:09:38.887Z,8.00
2022-09-01T07:12:29.420Z,10.20
2022-09-01T07:17:52.308Z,7.03
2022-09-01T07:20:24.503Z,10.63
2022-09-01T07:23:08.173Z,13.95
2022-09-01T07:26:01.237Z,8.60
2022-09-01T07:28:36.069Z,8.32
2022-09-01T07:34:37.699Z,9.68
2022-09-01T07:45:27.633Z,9.63
2022-09-01T07:47:54.892Z,9.48
2022-09-01T07:50:38.560Z,16.10
2022-09-01T07:53:17.657Z,8.75
2022-09-01T07:55:49.889Z,13.35
2022-09-01T07:58:18.500Z,8.90
2022-09-01T08:00:47.425Z,12.52
2022-09-01T08:03:14.631Z,10.05
2022-09-01T08:05:41.338Z,14.85
2022-09-01T08:08:18.601Z,8.55
2022-09-01T08:10:49.030Z,12.95
2022-09-01T08:13:16.998Z,15.88
2022-09-01T08:18:50.162Z,9.32
2022-09-01T08:21:18.575Z,8.75
2022-09-01T08:23:45.244Z,8.30
2022-09-01T08:26:15.446Z,11.52
2022-09-01T08:28:46.014Z,10.32
2022-09-01T08:33:42.604Z,11.20
2022-09-01T08:36:12.538Z,11.23
2022-09-01T08:38:40.634Z,19.70
2022-09-01T08:41:35.027Z,7.97
2022-09-01T08:44:27.265Z,11.55
2022-09-01T08:47:08.141Z,13.75
2022-09-01T08:49:44.040Z,6.25
2022-09-01T08:55:00.666Z,7.25
2022-09-01T08:57:36.776Z,6.90
2022-09-01T09:00:09.179Z,11.18
2022-09-01T09:02:54.131Z,7.82
2022-09-01T09:05:35.757Z,9.65
2022-09-01T09:08:24.797Z,6.97
2022-09-01T09:11:00.923Z,7.63
2022-09-01T09:13:36.307Z,7.97
2022-09-01T09:16:10.753Z,9.30
2022-09-01T09:18:56.775Z,7.70
2022-09-01T09:21:50.700Z,5.63
2022-09-01T09:24:52.868Z,4.78
2022-09-01T09:27:30.092Z,6.70
2022-09-01T09:30:11.329Z,8.77
2022-09-01T09:35:50.479Z,2.83
2022-09-01T09:40:25.114Z,3.53
2022-09-01T09:41:26.848Z,2.13
2022-09-01T09:44:03.109Z,3.78
2022-09-01T09:46:32.734Z,2.25
2022-09-01T09:49:34.727Z,5.40
2022-09-01T09:52:10.071Z,3.85
2022-09-01T09:54:38.869Z,3.47
2022-09-01T09:57:08.302Z,2.08
2022-09-01T10:00:00.574Z,1.83
2022-09-01T10:02:43.104Z,1.55
2022-09-01T10:05:33.744Z,2.88
2022-09-01T10:10:31.901Z,4.00
2022-09-01T10:12:59.795Z,3.50
2022-09-01T10:15:30.747Z,1.95
2022-09-01T10:18:21.040Z,1.83
2022-09-01T10:21:00.453Z,2.33
2022-09-01T10:23:31.574Z,2.22
2022-09-01T10:26:09.749Z,4.50
2022-09-01T10:28:47.237Z,2.38
2022-09-01T10:31:17.917Z,4.05
2022-09-01T10:33:45.125Z,1.73
2022-09-01T10:36:14.380Z,2.30
2022-09-01T10:38:46.861Z,2.08
2022-09-01T10:41:44.023Z,2.20
2022-09-01T10:44:13.410Z,3.05
2022-09-01T10:46:50.484Z,5.05
2022-09-01T10:49:28.028Z,3.20
2022-09-01T10:52:03.268Z,4.60
2022-09-01T10:54:55.957Z,3.20
2022-09-01T10:57:31.622Z,2.95
2022-09-01T11:00:39.944Z,2.00
2022-09-01T11:06:13.126Z,1.73
2022-09-01T11:08:58.467Z,3.83
2022-09-01T11:11:34.155Z,2.55
2022-09-01T11:14:01.169Z,1.38
2022-09-01T11:16:49.345Z,2.42
2022-09-01T11:19:24.317Z,4.75
2022-09-01T11:22:23.364Z,2.15
2022-09-01T11:25:12.523Z,2.92
2022-09-01T11:27:48.473Z,3.85
2022-09-01T11:30:41.812Z,2.45
2022-09-01T11:33:11.519Z,4.88
2022-09-01T11:35:37.996Z,1.80
2022-09-01T11:38:07.800Z,3.08
2022-09-01T11:40:35.772Z,7.70
2022-09-01T11:43:12.429Z,3.33
2022-09-01T11:45:51.986Z,4.55
2022-09-01T11:48:18.845Z,4.07
2022-09-01T11:50:45.402Z,3.63
2022-09-01T11:53:22.094Z,2.72
2022-09-01T11:55:51.679Z,1.33
2022-09-01T11:58:34.523Z,5.90
2022-09-01T12:01:19.906Z,2.63
2022-09-01T12:03:48.714Z,2.00
2022-09-01T12:06:25.277Z,2.53
2022-09-01T12:08:58.689Z,5.80
2022-09-01T12:11:31.350Z,2.25
2022-09-01T12:14:12.117Z,1.35
2022-09-01T12:16:42.403Z,3.08
2022-09-01T12:19:22.108Z,4.20
2022-09-01T12:21:58.938Z,2.40
2022-09-01T12:24:26.404Z,1.35
2022-09-01T12:26:55.736Z,2.80
2022-09-01T12:29:23.195Z,2.10
2022-09-01T12:31:52.570Z,1.30
2022-09-01T12:34:47.878Z,2.40
2022-09-01T12:37:25.289Z,2.47
2022-09-01T12:39:54.959Z,5.78
2022-09-01T12:42:21.424Z,1.67
2022-09-01T12:45:03.330Z,2.00
2022-09-01T12:47:48.194Z,1.75
2022-09-01T12:50:16.428Z,2.60
2022-09-01T12:52:52.766Z,2.28
2022-09-01T12:58:12.658Z,1.20
2022-09-01T13:01:05.680Z,1.02
2022-09-01T13:03:34.746Z,1.98
2022-09-01T13:06:03.395Z,4.65
2022-09-01T13:08:33.106Z,3.60
2022-09-01T13:11:09.140Z,1.73
2022-09-01T13:13:37.467Z,3.85
2022-09-01T13:16:08.451Z,1.92
2022-09-01T13:19:10.433Z,2.80
2022-09-01T13:21:21.834Z,2.00
2022-09-01T13:23:50.752Z,3.65
2022-09-01T13:26:17.585Z,4.47
2022-09-01T13:28:45.939Z,4.97
2022-09-01T13:31:29.477Z,1.98
2022-09-01T13:34:21.653Z,1.60
2022-09-01T13:36:45.482Z,4.00
2022-09-01T13:39:15.451Z,2.20
2022-09-01T13:41:42.372Z,3.65
2022-09-01T13:44:10.404Z,2.42
2022-09-01T13:46:59.027Z,2.10
2022-09-01T13:52:11.481Z,1.88
2022-09-01T13:54:37.996Z,2.50
2022-09-01T13:57:05.968Z,1.70
2022-09-01T13:59:33.100Z,4.40
2022-09-01T14:02:01.527Z,1.45
2022-09-01T14:04:28.164Z,1.95
2022-09-01T14:06:55.164Z,1.77
2022-09-01T14:09:21.994Z,2.50
2022-09-01T14:11:48.488Z,6.43
2022-09-01T14:14:15.038Z,1.67
2022-09-01T14:16:41.575Z,1.40
2022-09-01T14:19:08.388Z,2.80
2022-09-01T14:21:34.841Z,3.10
2022-09-01T14:24:01.352Z,2.78
2022-09-01T14:26:28.125Z,1.67
2022-09-01T14:28:54.975Z,2.22
2022-09-01T14:31:21.601Z,3.92
2022-09-01T14:33:49.093Z,1.67
2022-09-01T14:36:22.318Z,1.45
2022-09-01T14:38:49.890Z,1.83
2022-09-01T14:41:22.971Z,3.17
2022-09-01T14:43:53.808Z,3.78
2022-09-01T14:46:21.044Z,3.60
2022-09-01T14:48:48.738Z,2.17
2022-09-01T14:51:24.581Z,9.32
2022-09-01T14:53:52.654Z,1.45
2022-09-01T14:56:19.776Z,3.30
2022-09-01T14:58:47.234Z,1.73
2022-09-01T15:01:33.080Z,1.88
2022-09-01T15:04:00.514Z,4.05
2022-09-01T15:06:26.989Z,0.98
2022-09-01T15:08:53.503Z,2.35
2022-09-01T15:11:21.180Z,3.53
2022-09-01T15:13:50.337Z,4.05
2022-09-01T15:16:23.036Z,2.92
2022-09-01T15:18:49.659Z,4.95
2022-09-01T15:21:23.650Z,3.85
2022-09-01T15:23:50.936Z,1.27
2022-09-01T15:26:18.356Z,2.80
2022-09-01T15:28:45.615Z,2.38
2022-09-01T15:31:14.474Z,1.48
2022-09-01T15:33:43.990Z,1.85
2022-09-01T15:36:17.513Z,1.73
2022-09-01T15:38:44.561Z,6.63
2022-09-01T15:41:19.996Z,2.70
2022-09-01T15:43:46.525Z,4.97
2022-09-01T15:46:14.374Z,0.95
2022-09-01T15:48:46.930Z,2.92
2022-09-01T15:51:22.523Z,7.15
2022-09-01T15:53:50.120Z,2.88
2022-09-01T15:56:18.504Z,2.20
2022-09-01T15:59:00.771Z,2.70
2022-09-01T16:01:30.786Z,8.43
2022-09-01T16:03:57.787Z,1.33
2022-09-01T16:06:26.385Z,3.00
2022-09-01T16:08:54.373Z,2.55
2022-09-01T16:11:23.415Z,7.10
2022-09-01T16:13:53.626Z,6.07
2022-09-01T16:16:20.122Z,2.38
2022-09-01T16:18:55.605Z,5.25
2022-09-01T16:21:40.495Z,1.80
2022-09-01T16:24:12.083Z,2.33
2022-09-01T16:26:39.223Z,2.97
2022-09-01T16:29:15.720Z,1.40
2022-09-01T16:31:42.263Z,1.45
2022-09-01T16:34:18.743Z,2.50
2022-09-01T16:36:55.160Z,3.90
2022-09-01T16:39:34.964Z,2.05
2022-09-01T16:42:13.329Z,2.30
2022-09-01T16:44:53.790Z,2.35
2022-09-01T16:50:16.787Z,6.45
2022-09-01T16:53:21.976Z,6.95
2022-09-01T16:56:11.968Z,1.90
2022-09-01T17:02:17.850Z,3.67
2022-09-01T17:04:49.810Z,2.92
2022-09-01T17:07:21.671Z,3.80
2022-09-01T17:10:06.036Z,1.85
2022-09-01T17:12:48.967Z,1.25
2022-09-01T17:15:27.674Z,2.97
2022-09-01T17:18:22.829Z,2.33
2022-09-01T17:20:58.424Z,2.95
2022-09-01T17:23:38.062Z,5.57
2022-09-01T17:26:12.117Z,5.75
2022-09-01T17:28:44.981Z,2.95
2022-09-01T17:31:22.070Z,2.88
2022-09-01T17:34:09.873Z,2.70
2022-09-01T17:37:14.215Z,2.28
2022-09-01T17:40:17.096Z,7.43
2022-09-01T17:42:57.938Z,2.88
2022-09-01T17:45:38.621Z,4.38
2022-09-01T17:48:17.937Z,1.88
2022-09-01T17:51:16.812Z,6.85
2022-09-01T17:54:12.436Z,2.13
2022-09-01T17:56:48.842Z,2.08
2022-09-01T17:59:30.255Z,1.60
2022-09-01T18:02:07.810Z,4.20
2022-09-01T18:04:48.943Z,2.30
2022-09-01T18:07:19.698Z,4.30
2022-09-01T18:09:52.443Z,3.67
2022-09-01T18:12:27.031Z,7.38
2022-09-01T18:15:08.810Z,3.22
2022-09-01T18:17:41.129Z,3.67
2022-09-01T18:20:24.608Z,1.35
2022-09-01T18:22:54.275Z,4.03
2022-09-01T18:25:31.265Z,4.27
2022-09-01T18:27:57.731Z,1.98
2022-09-01T18:30:42.785Z,9.15
2022-09-01T18:33:29.626Z,5.75
2022-09-01T18:36:09.732Z,4.72
2022-09-01T18:38:53.099Z,2.47
2022-09-01T18:41:28.567Z,5.68
2022-09-01T18:44:01.929Z,5.72
2022-09-01T18:46:41.046Z,2.45
2022-09-01T18:49:31.207Z,2.88
2022-09-01T18:52:27.142Z,3.65
2022-09-01T18:55:16.654Z,6.03
2022-09-01T18:57:47.092Z,5.22
2022-09-01T19:00:19.619Z,2.58
2022-09-01T19:02:55.718Z,6.25
2022-09-01T19:05:33.276Z,5.43
2022-09-01T19:08:27.541Z,3.72
2022-09-01T19:11:11.138Z,8.20
2022-09-01T19:13:53.548Z,4.10
2022-09-01T19:16:38.612Z,4.47
2022-09-01T19:19:07.967Z,5.82
2022-09-01T19:21:36.292Z,7.25
2022-09-01T19:24:28.007Z,5.20
2022-09-01T19:27:03.282Z,2.72
2022-09-01T19:29:36.323Z,6.32
2022-09-01T19:32:08.715Z,4.45
2022-09-01T19:34:42.980Z,9.35
2022-09-01T19:37:11.071Z,6.05
2022-09-01T19:39:44.587Z,5.60
2022-09-01T19:42:39.833Z,2.97
2022-09-01T19:45:22.925Z,2.03
2022-09-01T19:47:55.851Z,3.28
2022-09-01T19:50:31.946Z,7.53
2022-09-01T19:53:07.661Z,4.35
2022-09-01T19:55:53.910Z,6.32
2022-09-01T19:58:38.822Z,4.55
2022-09-01T20:01:12.036Z,8.68
2022-09-01T20:03:50.487Z,4.60
2022-09-01T20:06:42.554Z,2.55
2022-09-01T20:09:14.965Z,3.65
2022-09-01T20:11:41.446Z,2.85
2022-09-01T20:14:20.293Z,4.60
2022-09-01T20:16:52.813Z,2.28
2022-09-01T20:19:56.740Z,3.60
2022-09-01T20:22:32.683Z,7.43
2022-09-01T20:25:10.194Z,4.30
2022-09-01T20:28:17.649Z,5.03
2022-09-01T20:30:51.030Z,9.15
2022-09-01T20:33:44.105Z,3.20
2022-09-01T20:36:41.410Z,3.17
2022-09-01T20:39:39.030Z,5.65
2022-09-01T20:42:23.041Z,4.43
2022-09-01T20:44:58.439Z,2.50
2022-09-01T20:47:27.885Z,4.47
2022-09-01T20:49:56.873Z,6.07
2022-09-01T20:52:56.152Z,9.95
2022-09-01T20:55:58.043Z,4.72
2022-09-01T20:58:46.710Z,3.78
2022-09-01T21:01:54.986Z,5.20
2022-09-01T21:04:36.838Z,4.40
2022-09-01T21:07:19.215Z,5.78
2022-09-01T21:10:17.168Z,4.05
2022-09-01T21:12:48.689Z,9.10
2022-09-01T21:16:03.604Z,4.78
2022-09-01T21:18:46.583Z,7.28
2022-09-01T21:21:36.105Z,3.78
2022-09-01T21:24:03.932Z,6.00
2022-09-01T21:26:31.205Z,4.70
2022-09-01T21:29:04.256Z,4.60
2022-09-01T21:31:30.982Z,5.22
2022-09-01T21:33:57.468Z,3.95
2022-09-01T21:36:23.970Z,4.88
2022-09-01T21:38:50.547Z,6.57
2022-09-01T21:41:17.074Z,4.60
2022-09-01T21:43:45.762Z,3.92
2022-09-01T21:46:14.538Z,6.50
2022-09-01T21:48:41.298Z,6.82
2022-09-01T21:51:07.867Z,5.07
2022-09-01T21:53:34.362Z,5.63
2022-09-01T21:56:01.148Z,3.38
2022-09-01T21:58:27.913Z,3.70
2022-09-01T22:00:54.544Z,5.38
2022-09-01T22:03:21.242Z,6.80
2022-09-01T22:05:47.753Z,3.38
2022-09-01T22:08:17.270Z,5.60
2022-09-01T22:10:47.090Z,4.85
2022-09-01T22:13:13.903Z,2.60
2022-09-01T22:15:44.048Z,4.68
2022-09-01T22:18:11.186Z,5.75
2022-09-01T22:20:38.297Z,2.63
2022-09-01T22:23:05.009Z,5.63
2022-09-01T22:25:33.049Z,4.05
2022-09-01T22:28:01.697Z,5.20
2022-09-01T22:30:28.930Z,5.45
2022-09-01T22:32:55.485Z,5.88
2022-09-01T22:35:22.115Z,3.40
2022-09-01T22:37:49.127Z,4.25
2022-09-01T22:40:16.580Z,5.28
2022-09-01T22:42:43.617Z,7.97
2022-09-01T22:45:13.004Z,4.85
2022-09-01T22:47:39.683Z,4.80
2022-09-01T22:50:08.208Z,3.65
2022-09-01T22:52:35.901Z,4.97
2022-09-01T22:55:03.409Z,5.13
2022-09-01T22:57:30.156Z,8.63
2022-09-01T22:59:56.691Z,6.18
2022-09-01T23:02:23.500Z,5.38
2022-09-01T23:04:50.377Z,5.30
2022-09-01T23:07:16.889Z,6.55
2022-09-01T23:09:43.365Z,4.93
2022-09-01T23:12:09.849Z,4.30
2022-09-01T23:14:36.312Z,5.25
2022-09-01T23:17:02.965Z,4.35
2022-09-01T23:19:29.504Z,6.03
2022-09-01T23:21:56.022Z,5.82
2022-09-01T23:24:22.774Z,4.18
2022-09-01T23:26:49.776Z,5.85
2022-09-01T23:29:16.806Z,5.78
2022-09-01T23:31:44.198Z,9.68
2022-09-01T23:34:11.183Z,4.22
2022-09-01T23:36:37.698Z,7.25
2022-09-01T23:39:05.771Z,5.22
2022-09-01T23:41:34.181Z,8.93
2022-09-01T23:44:03.591Z,6.30
2022-09-01T23:46:42.053Z,8.90
2022-09-01T23:49:10.300Z,6.22
2022-09-01T23:51:37.040Z,6.65
2022-09-01T23:54:03.702Z,7.82
2022-09-01T23:56:30.693Z,7.60
2022-09-01T23:58:58.484Z,7.00
